Time;durP1;ratioP1;P1;durP2;ratioP2;P2;SDS_P1;SDS_P2;PMS_P1;PMS_P2;Temp;Humidity;BMP_temperature;BMP_pressure;BME280_temperature;BME280_humidity;BME280_pressure;Samples;Min_cycle;Max_cycle;Signal;HPM_P1;HPM_P2
2023/10/18 04:01:42;;;;;;;4.50;4.10;;;2.60;99.90;;;;;;5394940;23;20999;-72
2023/10/18 04:04:17;;;;;;;2.88;2.67;;;2.60;99.90;;;;;;4957840;28;20267;-72
2023/10/18 04:06:44;;;;;;;5.70;4.40;;;2.60;99.90;;;;;;4957472;28;20228;-72
2023/10/18 04:09:16;;;;;;;5.00;4.70;;;2.60;99.90;;;;;;4957498;28;20590;-72
2023/10/18 04:11:43;;;;;;;4.20;3.80;;;2.60;99.90;;;;;;4963057;28;20652;-72
2023/10/18 04:14:16;;;;;;;4.10;3.80;;;2.60;99.90;;;;;;4967637;28;20231;-72
2023/10/18 04:16:47;;;;;;;4.60;4.15;;;2.50;99.90;;;;;;4965644;28;20259;-73
2023/10/18 04:19:19;;;;;;;4.22;3.40;;;2.50;99.90;;;;;;4967198;28;20223;-73
2023/10/18 04:21:51;;;;;;;4.88;4.47;;;2.50;99.90;;;;;;4968801;28;20319;-73
2023/10/18 04:24:20;;;;;;;3.97;3.45;;;2.50;99.90;;;;;;4959849;28;20240;-73
2023/10/18 04:26:47;;;;;;;4.22;3.83;;;2.50;99.90;;;;;;4959515;28;20244;-73
2023/10/18 04:29:22;;;;;;;4.65;2.53;;;2.50;99.90;;;;;;4960156;28;20219;-73
2023/10/18 04:31:52;;;;;;;4.15;3.75;;;2.50;99.90;;;;;;4959548;28;20237;-73
2023/10/18 04:34:21;;;;;;;6.35;4.22;;;2.50;99.90;;;;;;4958187;28;20732;-73
2023/10/18 04:36:51;;;;;;;3.88;3.45;;;2.40;99.90;;;;;;4957376;28;20212;-72
2023/10/18 04:39:20;;;;;;;4.63;4.22;;;2.40;99.90;;;;;;4957830;28;20228;-73
2023/10/18 04:41:46;;;;;;;9.38;4.97;;;2.40;99.90;;;;;;4965404;28;20324;-72
2023/10/18 04:44:18;;;;;;;8.05;5.53;;;2.40;99.90;;;;;;4957296;28;20209;-72
2023/10/18 04:46:48;;;;;;;8.20;5.35;;;2.40;99.90;;;;;;4956715;28;20225;-72
2023/10/18 04:49:36;;;;;;;9.18;5.82;;;2.40;99.90;;;;;;4956692;28;20664;-72
2023/10/18 04:52:04;;;;;;;4.75;4.18;;;2.40;99.90;;;;;;4956964;28;20237;-73
2023/10/18 04:54:37;;;;;;;4.40;3.97;;;2.40;99.90;;;;;;4956911;28;20217;-72
2023/10/18 04:57:09;;;;;;;11.13;5.38;;;2.40;99.90;;;;;;4956769;28;20232;-72
2023/10/18 04:59:44;;;;;;;5.00;4.47;;;2.40;99.90;;;;;;4956790;28;20220;-72
2023/10/18 05:02:16;;;;;;;4.63;4.03;;;2.40;99.90;;;;;;4956374;28;20245;-71
2023/10/18 05:04:46;;;;;;;6.03;4.60;;;2.30;99.90;;;;;;4956971;28;20291;-71
2023/10/18 05:07:15;;;;;;;6.43;4.75;;;2.30;99.90;;;;;;4964491;28;20233;-71
2023/10/18 05:09:43;;;;;;;7.80;4.32;;;2.30;99.90;;;;;;4956103;28;20301;-71
2023/10/18 05:12:27;;;;;;;4.47;4.22;;;2.40;99.90;;;;;;4956472;28;20666;-71
2023/10/18 05:15:06;;;;;;;3.33;3.05;;;2.40;99.90;;;;;;4957220;28;20624;-71
2023/10/18 05:17:39;;;;;;;4.25;3.85;;;2.30;99.90;;;;;;4957431;28;20217;-72
2023/10/18 05:20:16;;;;;;;5.85;4.47;;;2.30;99.90;;;;;;4956775;28;20245;-71
2023/10/18 05:22:45;;;;;;;5.22;4.78;;;2.30;99.90;;;;;;4962401;28;20251;-71
2023/10/18 05:25:15;;;;;;;4.38;4.07;;;2.30;99.90;;;;;;4957567;28;20688;-71
2023/10/18 05:27:59;;;;;;;7.00;4.60;;;2.30;99.90;;;;;;4956546;28;20216;-71
2023/10/18 05:30:26;;;;;;;4.00;3.80;;;2.30;99.90;;;;;;4948848;29;20221;-71
2023/10/18 05:33:02;;;;;;;6.00;5.13;;;2.30;99.90;;;;;;4956193;28;20672;-72
2023/10/18 05:35:33;;;;;;;9.50;5.72;;;2.30;99.90;;;;;;4956309;28;20212;-72
2023/10/18 05:38:06;;;;;;;4.85;4.45;;;2.30;99.90;;;;;;4956472;28;20241;-72
2023/10/18 05:40:46;;;;;;;8.60;5.13;;;2.30;99.90;;;;;;4956307;28;20350;-72
2023/10/18 05:43:22;;;;;;;4.30;4.00;;;2.30;99.90;;;;;;4955987;28;20691;-72
2023/10/18 05:45:48;;;;;;;6.82;4.85;;;2.30;99.90;;;;;;4955961;28;20577;-72
2023/10/18 05:48:18;;;;;;;4.00;3.80;;;2.30;99.90;;;;;;4955664;28;20217;-71
2023/10/18 05:50:49;;;;;;;4.65;4.25;;;2.30;99.90;;;;;;4955807;28;20240;-71
2023/10/18 05:53:18;;;;;;;7.47;4.30;;;2.30;99.90;;;;;;4955555;28;20223;-72
2023/10/18 05:55:52;;;;;;;3.67;3.40;;;2.30;99.90;;;;;;4955192;28;20300;-72
2023/10/18 05:58:25;;;;;;;5.18;4.05;;;2.30;99.90;;;;;;4955155;28;20252;-71
2023/10/18 06:00:52;;;;;;;5.50;5.00;;;2.30;99.90;;;;;;4955128;28;20296;-71
2023/10/18 06:03:22;;;;;;;6.40;5.43;;;2.40;99.90;;;;;;4954879;28;20209;-71
2023/10/18 06:05:53;;;;;;;4.70;4.20;;;2.40;99.90;;;;;;4954750;28;20666;-71
2023/10/18 06:08:22;;;;;;;4.72;3.95;;;2.40;99.90;;;;;;4954957;28;20620;-71
2023/10/18 06:10:50;;;;;;;7.88;3.63;;;2.40;99.90;;;;;;4955339;28;20652;-71
2023/10/18 06:13:22;;;;;;;5.47;4.88;;;2.40;99.90;;;;;;4955511;28;20225;-71
2023/10/18 06:15:50;;;;;;;4.55;3.90;;;2.40;99.90;;;;;;4955400;28;20292;-72
2023/10/18 06:18:18;;;;;;;4.90;4.32;;;2.40;99.90;;;;;;4955625;28;20280;-72
2023/10/18 06:20:45;;;;;;;5.13;4.18;;;2.40;99.90;;;;;;4954451;28;20651;-72
2023/10/18 06:25:57;;;;;;;6.93;5.43;;;2.50;99.90;;;;;;4961985;28;20323;-72
2023/10/18 06:28:25;;;;;;;3.72;3.47;;;2.50;99.90;;;;;;4954640;28;20309;-72
2023/10/18 06:30:53;;;;;;;7.07;4.50;;;2.60;99.90;;;;;;4954379;28;20245;-72
2023/10/18 06:33:20;;;;;;;5.28;3.55;;;2.60;99.90;;;;;;4954527;28;20219;-72
2023/10/18 06:35:52;;;;;;;3.33;3.13;;;2.60;99.90;;;;;;4954432;28;20213;-72
2023/10/18 06:38:22;;;;;;;3.35;3.15;;;2.70;99.90;;;;;;4954893;28;20220;-73
2023/10/18 06:40:51;;;;;;;4.95;4.05;;;2.70;99.90;;;;;;4954784;28;20288;-73
2023/10/18 06:43:20;;;;;;;4.18;3.80;;;2.80;99.90;;;;;;4954707;28;20283;-72
2023/10/18 06:45:48;;;;;;;4.10;3.78;;;2.90;99.90;;;;;;4954004;28;20227;-73
2023/10/18 06:48:15;;;;;;;4.28;3.75;;;3.00;99.90;;;;;;4954556;28;20262;-73
2023/10/18 06:50:45;;;;;;;4.13;3.83;;;3.10;99.90;;;;;;4954233;28;20770;-73
2023/10/18 06:53:13;;;;;;;4.15;3.83;;;3.20;99.90;;;;;;4954789;28;20248;-73
2023/10/18 06:55:44;;;;;;;4.25;3.88;;;3.20;99.90;;;;;;4955685;28;20232;-72
2023/10/18 06:58:40;;;;;;;4.78;4.40;;;3.20;99.90;;;;;;4978759;28;20193;-71
2023/10/18 07:01:08;;;;;;;6.85;3.78;;;3.30;99.90;;;;;;4961540;28;20272;-74
2023/10/18 07:03:37;;;;;;;4.15;3.58;;;3.30;99.90;;;;;;4954485;28;20227;-73
2023/10/18 07:06:05;;;;;;;6.03;4.20;;;3.30;99.90;;;;;;4954336;28;20240;-72
2023/10/18 07:08:33;;;;;;;4.53;4.18;;;3.40;99.90;;;;;;4954349;28;20220;-73
2023/10/18 07:11:02;;;;;;;4.43;3.58;;;3.40;99.90;;;;;;4954157;28;20244;-73
2023/10/18 07:13:38;;;;;;;5.75;3.97;;;3.50;99.90;;;;;;4954545;28;20248;-73
2023/10/18 07:16:12;;;;;;;3.92;3.67;;;3.60;99.90;;;;;;4954187;28;20213;-72
2023/10/18 07:18:39;;;;;;;4.70;4.30;;;3.60;99.90;;;;;;4954026;28;20272;-73
2023/10/18 07:21:06;;;;;;;4.70;4.30;;;3.60;99.90;;;;;;4953767;28;20233;-73
2023/10/18 07:23:36;;;;;;;5.95;3.85;;;3.70;99.90;;;;;;4953848;28;20209;-73
2023/10/18 07:26:07;;;;;;;6.80;4.25;;;3.80;99.90;;;;;;4953718;28;20213;-73
2023/10/18 07:28:35;;;;;;;4.05;3.78;;;3.80;99.90;;;;;;4953979;28;20589;-73
2023/10/18 07:31:08;;;;;;;5.82;3.53;;;3.80;99.90;;;;;;4953964;28;20369;-73
2023/10/18 07:33:39;;;;;;;3.70;3.40;;;3.90;99.90;;;;;;4953311;28;20217;-73
2023/10/18 07:36:07;;;;;;;3.83;3.63;;;3.90;99.90;;;;;;4953508;28;20228;-73
2023/10/18 07:38:37;;;;;;;3.40;3.10;;;4.00;99.90;;;;;;4953602;28;20213;-73
2023/10/18 07:41:07;;;;;;;9.82;3.50;;;4.00;99.90;;;;;;4953426;28;20260;-73
2023/10/18 07:43:36;;;;;;;26.95;16.52;;;4.10;99.90;;;;;;4953644;28;20213;-73
2023/10/18 07:46:09;;;;;;;28.00;20.83;;;4.20;99.90;;;;;;4953209;28;20243;-72
2023/10/18 07:48:45;;;;;;;11.05;7.50;;;4.30;99.90;;;;;;4954283;28;20280;-73
2023/10/18 07:51:23;;;;;;;5.85;5.20;;;4.30;99.90;;;;;;4953699;28;20627;-73
2023/10/18 07:53:50;;;;;;;3.30;3.20;;;4.40;99.90;;;;;;4953380;28;20359;-73
2023/10/18 07:56:18;;;;;;;3.50;3.20;;;4.50;99.90;;;;;;4953194;28;20304;-72
2023/10/18 07:58:49;;;;;;;4.00;3.70;;;4.60;99.90;;;;;;4953319;28;20219;-72
2023/10/18 08:01:32;;;;;;;5.05;4.55;;;4.60;99.90;;;;;;4953347;28;20244;-72
2023/10/18 08:04:01;;;;;;;5.22;4.70;;;4.70;99.90;;;;;;4953705;28;20212;-72
2023/10/18 08:06:33;;;;;;;5.13;4.20;;;4.80;99.90;;;;;;4953073;28;20232;-72
2023/10/18 08:09:03;;;;;;;5.65;5.15;;;4.80;99.90;;;;;;4953462;28;20597;-72
2023/10/18 08:11:33;;;;;;;6.80;6.10;;;4.90;99.90;;;;;;4953191;28;20268;-71
2023/10/18 08:14:01;;;;;;;5.90;5.40;;;5.00;99.90;;;;;;4956819;28;20213;-72
2023/10/18 08:16:27;;;;;;;7.82;7.03;;;5.10;99.90;;;;;;4955802;28;20209;-72
2023/10/18 08:18:57;;;;;;;6.47;5.88;;;5.20;99.90;;;;;;4953373;28;20209;-72
2023/10/18 08:21:36;;;;;;;6.45;5.85;;;5.30;99.90;;;;;;4955511;28;20233;-72
2023/10/18 08:24:08;;;;;;;7.32;6.75;;;5.30;99.90;;;;;;4959357;28;20215;-71
2023/10/18 08:26:46;;;;;;;10.00;6.15;;;5.50;99.90;;;;;;4955475;28;20233;-72
2023/10/18 08:29:14;;;;;;;6.88;6.18;;;5.50;99.90;;;;;;4955727;28;20216;-72
2023/10/18 08:31:44;;;;;;;7.05;6.43;;;5.60;99.90;;;;;;4953107;28;20245;-72
2023/10/18 08:34:15;;;;;;;9.07;7.72;;;5.80;99.90;;;;;;4953697;28;20507;-72
2023/10/18 08:36:43;;;;;;;6.40;5.90;;;5.90;99.90;;;;;;4953713;28;20216;-72
2023/10/18 08:39:11;;;;;;;7.72;6.90;;;6.00;99.90;;;;;;4953570;28;20237;-72
2023/10/18 08:41:44;;;;;;;8.73;7.43;;;6.10;99.90;;;;;;4953353;28;20233;-72
2023/10/18 08:44:18;;;;;;;6.30;5.70;;;6.20;99.90;;;;;;4953718;28;20219;-72
2023/10/18 08:46:52;;;;;;;7.35;6.70;;;6.40;99.90;;;;;;4958467;28;20229;-72
2023/10/18 08:49:22;;;;;;;7.30;6.68;;;6.50;99.90;;;;;;4957955;28;20620;-71
2023/10/18 08:51:56;;;;;;;6.70;5.70;;;6.70;99.90;;;;;;4957873;28;20233;-72
2023/10/18 08:54:24;;;;;;;7.57;6.35;;;6.80;99.90;;;;;;4957496;28;20217;-72
2023/10/18 08:56:53;;;;;;;6.35;5.85;;;6.90;99.90;;;;;;4957528;28;20213;-72
2023/10/18 08:59:20;;;;;;;6.70;6.10;;;7.00;99.90;;;;;;4956897;28;20313;-74
2023/10/18 09:04:31;;;;;;;5.38;4.72;;;7.30;99.90;;;;;;4956520;28;20248;-71
2023/10/18 09:06:59;;;;;;;3.00;2.80;;;7.50;99.90;;;;;;4956495;28;20233;-72
2023/10/18 09:09:34;;;;;;;4.35;3.25;;;7.70;99.90;;;;;;4956316;28;20197;-72
2023/10/18 09:12:14;;;;;;;3.22;3.03;;;7.80;99.90;;;;;;4956409;28;20676;-71
2023/10/18 09:14:41;;;;;;;2.67;2.47;;;7.90;99.90;;;;;;4956424;28;20236;-72
2023/10/18 09:17:10;;;;;;;3.10;2.90;;;8.00;99.90;;;;;;4956274;28;20212;-72
2023/10/18 09:19:38;;;;;;;2.35;2.25;;;8.20;99.90;;;;;;4956442;28;20201;-73
2023/10/18 09:22:07;;;;;;;2.70;2.50;;;8.30;99.90;;;;;;4955731;28;20232;-73
2023/10/18 09:24:34;;;;;;;2.33;2.00;;;8.50;99.90;;;;;;4956063;28;20227;-72
2023/10/18 09:27:05;;;;;;;2.45;2.25;;;8.50;99.90;;;;;;4956101;28;20229;-71
2023/10/18 09:29:35;;;;;;;1.92;1.83;;;8.70;99.90;;;;;;4955987;28;20224;-72
2023/10/18 09:32:03;;;;;;;2.22;2.13;;;8.70;99.90;;;;;;4955676;28;20245;-72
2023/10/18 09:34:33;;;;;;;2.65;2.45;;;8.80;99.90;;;;;;4955574;28;20664;-72
2023/10/18 09:37:04;;;;;;;2.10;2.03;;;8.90;99.90;;;;;;4955873;28;20209;-72
2023/10/18 09:39:38;;;;;;;3.05;2.00;;;9.10;99.90;;;;;;4955816;28;20691;-72
2023/10/18 09:42:12;;;;;;;1.73;1.63;;;9.20;99.90;;;;;;4955577;28;20279;-72
2023/10/18 09:44:41;;;;;;;2.25;2.10;;;9.30;99.90;;;;;;4955749;28;20815;-72
2023/10/18 09:47:08;;;;;;;2.13;2.03;;;9.30;99.90;;;;;;4955076;28;20252;-72
2023/10/18 09:49:35;;;;;;;2.55;2.35;;;9.40;99.90;;;;;;4955365;28;20239;-72
2023/10/18 09:52:07;;;;;;;2.65;2.50;;;9.50;99.90;;;;;;4955574;28;20236;-72
2023/10/18 09:54:35;;;;;;;2.40;2.30;;;9.50;99.90;;;;;;4955231;28;20263;-72
2023/10/18 09:57:06;;;;;;;2.13;2.08;;;9.60;99.90;;;;;;4955070;28;20236;-72
2023/10/18 09:59:37;;;;;;;1.73;1.73;;;9.70;99.90;;;;;;4955214;28;20217;-72
2023/10/18 10:02:08;;;;;;;2.50;2.40;;;9.70;99.90;;;;;;4955120;28;20252;-72
2023/10/18 10:04:36;;;;;;;2.67;2.03;;;9.80;99.90;;;;;;4955016;28;20304;-73
2023/10/18 10:09:48;;;;;;;1.90;1.85;;;9.90;99.90;;;;;;4948213;28;20617;-72
2023/10/18 10:12:16;;;;;;;1.95;1.85;;;9.90;99.90;;;;;;4954912;28;20237;-73
2023/10/18 10:14:45;;;;;;;2.92;2.72;;;9.90;99.90;;;;;;4954989;28;20554;-72
2023/10/18 10:17:15;;;;;;;2.60;1.70;;;9.90;99.90;;;;;;4955079;28;20704;-72
2023/10/18 10:19:46;;;;;;;2.55;2.40;;;10.00;99.90;;;;;;4955047;28;20597;-72
2023/10/18 10:22:17;;;;;;;1.83;1.80;;;10.00;99.90;;;;;;4954835;28;20229;-72
2023/10/18 10:24:46;;;;;;;1.90;1.80;;;10.10;99.90;;;;;;4955038;28;20209;-72
2023/10/18 10:27:41;;;;;;;1.75;1.67;;;10.10;99.90;;;;;;4954734;28;20229;-73
2023/10/18 10:32:53;;;;;;;2.20;2.10;;;10.20;99.90;;;;;;4952331;28;20214;-72
2023/10/18 10:35:24;;;;;;;1.98;1.90;;;10.20;99.90;;;;;;4954507;28;20583;-72
2023/10/18 10:37:52;;;;;;;2.00;1.90;;;10.30;99.90;;;;;;4954885;28;20582;-72
2023/10/18 10:40:39;;;;;;;1.75;1.65;;;10.40;99.90;;;;;;4954377;28;20217;-72
2023/10/18 10:43:09;;;;;;;2.65;2.25;;;10.40;99.90;;;;;;4954580;28;20216;-72
2023/10/18 10:45:56;;;;;;;4.18;1.85;;;10.50;99.90;;;;;;4954736;28;20213;-72
2023/10/18 10:48:46;;;;;;;2.13;2.03;;;10.50;99.90;;;;;;4954634;28;20241;-72
2023/10/18 10:51:20;;;;;;;2.08;1.98;;;10.60;99.90;;;;;;4953915;28;20276;-73
2023/10/18 10:54:01;;;;;;;2.30;2.30;;;10.70;99.90;;;;;;4954419;28;20633;-73
2023/10/18 10:57:00;;;;;;;2.33;2.22;;;10.70;99.90;;;;;;4954334;28;20591;-73
2023/10/18 10:59:28;;;;;;;3.03;2.50;;;10.80;99.90;;;;;;4933723;28;20350;-71
2023/10/18 11:02:06;;;;;;;3.08;2.65;;;10.80;99.90;;;;;;4965841;28;20246;-71
2023/10/18 11:04:57;;;;;;;1.70;1.60;;;10.80;99.90;;;;;;4955839;28;20264;-72
2023/10/18 11:07:25;;;;;;;2.90;1.90;;;10.90;99.90;;;;;;4964931;28;20255;-71
2023/10/18 11:09:59;;;;;;;2.20;2.10;;;11.00;99.90;;;;;;4958827;28;20209;-71
2023/10/18 11:12:27;;;;;;;2.72;2.05;;;11.00;99.90;;;;;;4965413;28;20256;-71
2023/10/18 11:14:54;;;;;;;2.00;2.00;;;11.00;99.90;;;;;;4958572;28;20214;-71
2023/10/18 11:17:24;;;;;;;7.55;2.25;;;11.10;99.90;;;;;;4954237;28;20217;-71
2023/10/18 11:19:54;;;;;;;2.40;2.30;;;11.10;99.90;;;;;;4962177;28;20204;-71
2023/10/18 11:22:22;;;;;;;2.00;1.90;;;11.10;99.90;;;;;;4965118;28;20647;-71
2023/10/18 11:24:50;;;;;;;1.80;1.70;;;11.20;99.90;;;;;;4966972;28;20217;-71
2023/10/18 11:27:18;;;;;;;2.22;2.03;;;11.20;99.90;;;;;;4964076;28;20269;-71
2023/10/18 11:29:46;;;;;;;1.80;1.80;;;11.20;99.90;;;;;;4967835;28;20209;-71
2023/10/18 11:32:18;;;;;;;1.55;1.55;;;11.30;99.90;;;;;;4970016;28;20229;-71
2023/10/18 11:34:46;;;;;;;3.60;3.40;;;11.30;99.90;;;;;;4959529;28;20224;-71
2023/10/18 11:37:26;;;;;;;1.90;1.80;;;11.30;99.90;;;;;;4955597;28;20210;-71
2023/10/18 11:39:55;;;;;;;2.22;2.13;;;11.40;99.90;;;;;;4961060;28;20213;-71
2023/10/18 11:42:22;;;;;;;2.20;1.63;;;11.40;99.90;;;;;;4954400;28;20631;-71
2023/10/18 11:44:54;;;;;;;2.13;2.13;;;11.40;99.90;;;;;;4961682;28;20212;-71
2023/10/18 11:47:21;;;;;;;2.30;2.17;;;11.40;99.90;;;;;;4953711;28;20257;-71
2023/10/18 11:49:53;;;;;;;3.80;3.55;;;11.40;99.90;;;;;;4960076;28;20212;-71
2023/10/18 11:52:22;;;;;;;2.93;2.10;;;11.40;99.90;;;;;;4952548;28;20230;-71
2023/10/18 11:54:52;;;;;;;1.77;1.77;;;11.50;99.90;;;;;;4956156;28;20503;-71
2023/10/18 11:57:28;;;;;;;2.53;2.43;;;11.50;99.90;;;;;;4951207;28;20465;-70
2023/10/18 11:59:56;;;;;;;2.60;2.40;;;11.50;99.90;;;;;;4954555;28;20529;-71
2023/10/18 12:02:27;;;;;;;2.23;2.13;;;11.50;99.90;;;;;;4951561;28;20507;-71
2023/10/18 12:04:57;;;;;;;2.30;2.10;;;11.50;99.90;;;;;;4955550;28;20833;-71
2023/10/18 12:07:24;;;;;;;2.30;2.10;;;11.50;99.90;;;;;;4952176;28;20472;-71
2023/10/18 12:09:52;;;;;;;3.50;2.27;;;11.60;99.90;;;;;;4955384;28;20461;-71
2023/10/18 12:12:20;;;;;;;1.80;1.80;;;11.60;99.90;;;;;;4953304;28;20488;-71
2023/10/18 12:14:47;;;;;;;2.20;2.20;;;11.60;99.90;;;;;;4954849;28;20512;-71
2023/10/18 12:17:15;;;;;;;2.30;2.20;;;11.60;99.90;;;;;;4953830;28;20214;-71
2023/10/18 12:19:43;;;;;;;2.10;2.00;;;11.70;99.90;;;;;;4956501;28;20473;-71
2023/10/18 12:22:15;;;;;;;2.50;2.40;;;11.70;99.90;;;;;;4956623;28;20526;-71
2023/10/18 12:24:42;;;;;;;1.97;1.87;;;11.80;99.90;;;;;;4958950;28;21005;-71
2023/10/18 12:27:33;;;;;;;2.60;2.50;;;11.80;99.90;;;;;;4957597;28;20481;-71
2023/10/18 12:30:09;;;;;;;1.97;1.87;;;11.90;99.90;;;;;;4958256;28;20462;-71
2023/10/18 12:32:42;;;;;;;2.07;2.07;;;12.00;99.90;;;;;;4957143;28;20660;-71
2023/10/18 12:35:13;;;;;;;3.00;2.90;;;12.00;99.90;;;;;;4957748;28;20497;-71
2023/10/18 12:37:41;;;;;;;2.90;2.60;;;12.10;99.90;;;;;;4958451;28;20558;-71
2023/10/18 12:40:28;;;;;;;2.40;2.30;;;12.00;99.90;;;;;;4962373;28;20476;-71
2023/10/18 12:42:57;;;;;;;3.10;2.90;;;12.00;99.90;;;;;;4961316;28;20916;-70
2023/10/18 12:45:24;;;;;;;3.03;2.83;;;12.10;99.90;;;;;;4962212;28;20466;-71
2023/10/18 12:47:52;;;;;;;3.00;2.77;;;12.10;99.90;;;;;;4958496;28;20489;-71
2023/10/18 12:50:19;;;;;;;2.13;2.07;;;12.00;99.90;;;;;;4958549;28;20531;-71
2023/10/18 12:52:52;;;;;;;2.13;2.03;;;12.00;99.90;;;;;;4959056;28;20819;-71
2023/10/18 12:58:00;;;;;;;4.70;2.23;;;11.90;99.90;;;;;;4955524;28;20483;-71
2023/10/18 13:00:26;;;;;;;2.27;2.20;;;11.90;99.90;;;;;;4949021;28;20487;-71
2023/10/18 13:05:41;;;;;;;2.27;2.17;;;11.70;99.90;;;;;;4956034;28;20965;-71
2023/10/18 13:08:16;;;;;;;2.87;2.67;;;11.70;99.90;;;;;;4957052;28;20564;-71
2023/10/18 13:10:59;;;;;;;2.50;2.40;;;11.70;99.90;;;;;;4957508;28;20482;-71
2023/10/18 13:13:30;;;;;;;2.60;2.40;;;11.80;99.90;;;;;;4956381;28;20556;-71
2023/10/18 13:16:03;;;;;;;2.50;2.30;;;11.80;99.90;;;;;;4956353;28;20472;-71
2023/10/18 13:18:29;;;;;;;2.40;2.30;;;11.80;99.90;;;;;;4949182;28;20532;-72
2023/10/18 13:21:05;;;;;;;2.80;2.70;;;11.80;99.90;;;;;;4957131;28;20487;-72
2023/10/18 13:23:33;;;;;;;2.80;2.70;;;11.70;99.90;;;;;;4955371;28;20476;-72
2023/10/18 13:26:00;;;;;;;2.73;2.60;;;11.80;99.90;;;;;;4956843;28;20468;-72
2023/10/18 13:28:33;;;;;;;3.00;2.80;;;11.80;99.90;;;;;;4964019;28;20528;-72
2023/10/18 13:31:04;;;;;;;2.87;2.67;;;11.80;99.90;;;;;;4955049;28;20678;-72
2023/10/18 13:33:33;;;;;;;3.03;2.80;;;11.80;99.90;;;;;;4947858;28;20523;-72
2023/10/18 13:36:01;;;;;;;3.10;2.90;;;11.80;99.90;;;;;;4956693;28;20554;-72
2023/10/18 13:38:28;;;;;;;2.50;2.40;;;11.90;99.90;;;;;;4956340;28;20811;-72
2023/10/18 13:40:58;;;;;;;3.80;3.60;;;11.90;99.90;;;;;;4955187;28;20842;-72
2023/10/18 13:43:25;;;;;;;2.40;2.20;;;11.90;99.90;;;;;;4956539;28;20462;-72
2023/10/18 13:45:58;;;;;;;3.30;3.10;;;11.90;99.90;;;;;;4954160;28;20493;-72
2023/10/18 13:48:26;;;;;;;3.50;3.30;;;11.90;99.90;;;;;;4955304;28;21013;-73
2023/10/18 13:50:58;;;;;;;3.20;3.03;;;11.90;99.90;;;;;;4955838;28;21075;-73
2023/10/18 13:53:24;;;;;;;3.00;2.80;;;12.00;99.90;;;;;;4953615;28;20558;-72
2023/10/18 13:55:58;;;;;;;3.10;3.00;;;11.90;99.90;;;;;;4956042;28;20468;-72
2023/10/18 13:58:25;;;;;;;3.30;3.20;;;11.90;99.90;;;;;;4955755;28;20461;-72
2023/10/18 14:00:52;;;;;;;3.23;3.03;;;11.90;99.90;;;;;;4953681;28;20876;-72
2023/10/18 14:03:19;;;;;;;3.50;3.30;;;11.80;99.90;;;;;;4955378;28;20460;-72
2023/10/18 14:05:46;;;;;;;3.07;2.97;;;11.80;99.90;;;;;;4958753;28;20885;-72
2023/10/18 14:08:16;;;;;;;2.80;2.60;;;11.80;99.90;;;;;;4971472;28;20500;-72
2023/10/18 14:10:44;;;;;;;4.10;3.57;;;11.90;99.90;;;;;;4974799;28;20733;-71
2023/10/18 14:13:12;;;;;;;3.60;3.30;;;11.80;99.90;;;;;;4965389;28;20478;-72
2023/10/18 14:15:39;;;;;;;3.23;3.07;;;11.80;99.90;;;;;;4966029;28;20560;-71
2023/10/18 14:18:07;;;;;;;4.30;2.83;;;11.80;99.90;;;;;;4965858;28;20985;-70
2023/10/18 14:20:38;;;;;;;3.55;3.28;;;11.70;99.90;;;;;;4954374;28;20579;-73
2023/10/18 14:23:07;;;;;;;3.57;3.37;;;11.70;99.90;;;;;;4963051;28;20218;-71
2023/10/18 14:25:37;;;;;;;3.20;2.90;;;11.70;99.90;;;;;;4962396;28;20461;-71
2023/10/18 14:28:05;;;;;;;3.60;3.40;;;11.70;99.90;;;;;;4954470;28;20263;-71
2023/10/18 14:30:35;;;;;;;4.37;3.97;;;11.60;99.90;;;;;;4971366;28;20229;-71
2023/10/18 14:33:04;;;;;;;4.68;4.30;;;11.60;99.90;;;;;;4974427;28;20464;-68
2023/10/18 14:35:31;;;;;;;3.77;3.57;;;11.50;99.90;;;;;;4964244;28;20213;-70
2023/10/18 14:38:00;;;;;;;3.90;3.60;;;11.50;99.90;;;;;;4958800;28;20473;-73
2023/10/18 14:40:27;;;;;;;5.50;3.92;;;11.50;99.90;;;;;;4970376;28;20466;-73
2023/10/18 14:42:54;;;;;;;3.50;3.30;;;11.50;99.90;;;;;;4964265;28;20209;-73
2023/10/18 14:45:21;;;;;;;4.30;4.00;;;11.40;99.90;;;;;;4953868;28;20464;-73
2023/10/18 14:47:52;;;;;;;3.28;3.15;;;11.40;99.90;;;;;;4953023;28;20217;-73
2023/10/18 14:50:20;;;;;;;4.10;3.90;;;11.30;99.90;;;;;;4955604;28;20221;-72
2023/10/18 14:52:46;;;;;;;3.78;3.53;;;11.30;99.90;;;;;;4954146;28;20213;-72
2023/10/18 14:55:13;;;;;;;3.70;3.40;;;11.30;99.90;;;;;;4953821;28;20214;-72
2023/10/18 14:57:40;;;;;;;11.38;4.05;;;11.20;99.90;;;;;;4961473;28;20231;-73
2023/10/18 15:00:11;;;;;;;4.18;3.88;;;11.20;99.90;;;;;;4965161;28;20624;-73
2023/10/18 15:02:38;;;;;;;3.80;3.50;;;11.10;99.90;;;;;;4955284;28;20209;-73
2023/10/18 15:05:09;;;;;;;3.50;3.10;;;11.10;99.90;;;;;;4954652;28;20820;-73
2023/10/18 15:07:37;;;;;;;5.40;3.92;;;11.00;99.90;;;;;;4954511;28;20636;-73
2023/10/18 15:10:05;;;;;;;4.30;3.33;;;11.00;99.90;;;;;;4954139;28;20570;-72
2023/10/18 15:12:32;;;;;;;5.10;4.53;;;11.00;99.90;;;;;;4954538;28;20402;-73
2023/10/18 15:14:59;;;;;;;3.97;3.67;;;10.90;99.90;;;;;;4954376;28;20221;-72
2023/10/18 15:17:26;;;;;;;3.30;2.95;;;10.90;99.90;;;;;;4954272;28;20598;-73
2023/10/18 15:19:53;;;;;;;4.45;4.15;;;10.80;99.90;;;;;;4954297;28;20216;-73
2023/10/18 15:22:21;;;;;;;3.80;3.50;;;10.80;99.90;;;;;;4954056;28;20244;-72
2023/10/18 15:24:49;;;;;;;3.85;3.65;;;10.80;99.90;;;;;;4953881;28;20217;-73
2023/10/18 15:27:16;;;;;;;4.88;4.22;;;10.70;99.90;;;;;;4959942;28;20213;-72
2023/10/18 15:29:42;;;;;;;4.22;3.85;;;10.60;99.90;;;;;;4966586;28;20239;-73
2023/10/18 15:32:12;;;;;;;4.32;4.05;;;10.60;99.90;;;;;;4963480;28;20240;-73
2023/10/18 15:34:39;;;;;;;5.05;3.80;;;10.50;99.90;;;;;;4959408;28;20217;-73
2023/10/18 15:37:09;;;;;;;3.85;3.55;;;10.50;99.90;;;;;;4960474;28;20337;-73
2023/10/18 15:39:37;;;;;;;4.20;3.90;;;10.40;99.90;;;;;;4956258;28;20208;-73
2023/10/18 15:42:06;;;;;;;4.25;3.95;;;10.40;99.90;;;;;;4955091;28;20600;-73
2023/10/18 15:44:32;;;;;;;4.10;3.90;;;10.40;99.90;;;;;;4954562;28;20633;-73
2023/10/18 15:47:00;;;;;;;5.18;4.60;;;10.30;99.90;;;;;;4954144;28;20217;-73
2023/10/18 15:49:28;;;;;;;3.90;3.70;;;10.20;99.90;;;;;;4954789;28;20233;-73
2023/10/18 15:51:56;;;;;;;6.43;4.70;;;10.20;99.90;;;;;;4961109;28;20236;-71
2023/10/18 15:54:24;;;;;;;4.40;4.10;;;10.10;99.90;;;;;;4954596;28;20219;-73
2023/10/18 15:56:52;;;;;;;4.28;4.00;;;10.10;99.90;;;;;;4953798;28;20637;-74
2023/10/18 15:59:19;;;;;;;5.07;4.78;;;10.00;99.90;;;;;;4954022;28;20209;-73
2023/10/18 16:01:45;;;;;;;6.07;4.22;;;9.90;99.90;;;;;;4953734;28;20252;-73
2023/10/18 16:04:13;;;;;;;4.40;4.20;;;9.80;99.90;;;;;;4953943;28;20217;-73
2023/10/18 16:06:40;;;;;;;4.20;3.90;;;9.80;99.90;;;;;;4953777;28;20275;-73
2023/10/18 16:09:10;;;;;;;5.03;4.63;;;9.70;99.90;;;;;;4961862;28;20232;-73
2023/10/18 16:11:36;;;;;;;4.00;3.80;;;9.70;99.90;;;;;;4958480;28;20291;-73
2023/10/18 16:14:05;;;;;;;3.42;3.33;;;9.60;99.90;;;;;;4957306;28;20665;-71
2023/10/18 16:16:33;;;;;;;5.30;4.25;;;9.50;99.90;;;;;;4973782;23;20236;-73
2023/10/18 16:19:01;;;;;;;5.47;4.70;;;9.40;99.90;;;;;;4955994;28;20791;-72
2023/10/18 16:21:31;;;;;;;4.65;4.35;;;9.40;99.90;;;;;;4953200;28;20660;-73
2023/10/18 16:24:05;;;;;;;5.38;4.43;;;9.30;99.90;;;;;;4952122;28;20213;-72
2023/10/18 16:26:36;;;;;;;3.95;3.70;;;9.20;99.90;;;;;;4960294;28;20244;-72
2023/10/18 16:29:05;;;;;;;3.95;3.65;;;9.20;99.90;;;;;;4947698;28;20240;-71
2023/10/18 16:31:34;;;;;;;5.45;4.95;;;9.10;99.90;;;;;;4953116;28;20209;-71
2023/10/18 16:34:00;;;;;;;4.70;4.40;;;9.10;99.90;;;;;;4950716;28;20285;-71
2023/10/18 16:36:27;;;;;;;4.05;3.75;;;9.10;99.90;;;;;;4951390;28;20229;-71
2023/10/18 16:38:56;;;;;;;4.13;3.92;;;9.00;99.90;;;;;;4953051;28;20567;-72
2023/10/18 16:41:26;;;;;;;3.80;3.60;;;9.00;99.90;;;;;;4952405;28;20664;-72
2023/10/18 16:43:53;;;;;;;4.75;4.35;;;9.00;99.90;;;;;;4958921;28;20246;-72
2023/10/18 16:46:20;;;;;;;3.88;3.58;;;8.90;99.90;;;;;;4950375;28;20324;-72
2023/10/18 16:48:49;;;;;;;3.03;2.90;;;8.90;99.90;;;;;;4952566;28;20732;-71
2023/10/18 16:51:16;;;;;;;3.40;3.10;;;8.80;99.90;;;;;;4947071;28;20296;-72
2023/10/18 16:53:45;;;;;;;4.15;3.80;;;8.80;99.90;;;;;;4940905;28;20220;-72
2023/10/18 16:56:14;;;;;;;4.10;2.90;;;8.70;99.90;;;;;;4948673;28;20224;-72
2023/10/18 16:58:41;;;;;;;4.00;3.70;;;8.70;99.90;;;;;;4969766;28;20235;-72
2023/10/18 17:01:09;;;;;;;3.67;3.40;;;8.70;99.90;;;;;;4964748;28;20232;-73
2023/10/18 17:03:39;;;;;;;3.65;3.35;;;8.70;99.90;;;;;;4954656;28;20565;-73
2023/10/18 17:06:08;;;;;;;3.75;3.50;;;8.70;99.90;;;;;;4962986;28;20303;-72
2023/10/18 17:08:36;;;;;;;3.78;3.58;;;8.70;99.90;;;;;;4956755;28;20709;-72
2023/10/18 17:11:04;;;;;;;4.20;3.80;;;8.70;99.90;;;;;;4956962;28;20241;-71
2023/10/18 17:13:31;;;;;;;4.18;3.83;;;8.60;99.90;;;;;;4956915;28;20723;-72
2023/10/18 17:15:58;;;;;;;3.78;3.47;;;8.60;99.90;;;;;;4956331;28;20213;-72
2023/10/18 17:18:25;;;;;;;4.30;3.97;;;8.60;99.90;;;;;;4956169;28;20233;-72
2023/10/18 17:20:52;;;;;;;4.43;3.78;;;8.60;99.90;;;;;;4956353;28;20209;-72
2023/10/18 17:23:21;;;;;;;4.03;3.75;;;8.60;99.90;;;;;;4955862;28;20210;-72
2023/10/18 17:25:48;;;;;;;4.38;3.97;;;8.60;99.90;;;;;;4956184;28;20221;-72